sensor_id;sensor_type;location;lat;lon;timestamp;P1;durP1;ratioP1;P2;durP2;ratioP2
3225;SDS011;1625;49.884;8.666;2022-11-10T00:00:19;8.40;;;4.00;;
3225;SDS011;1625;49.884;8.666;2022-11-10T00:02:45;5.50;;;3.87;;
3225;SDS011;1625;49.884;8.666;2022-11-10T00:05:11;4.43;;;3.80;;
3225;SDS011;1625;49.884;8.666;2022-11-10T00:07:38;4.13;;;3.63;;
3225;SDS011;1625;49.884;8.666;2022-11-10T00:10:04;3.97;;;3.67;;
3225;SDS011;1625;49.884;8.666;2022-11-10T00:12:31;5.70;;;3.97;;
3225;SDS011;1625;49.884;8.666;2022-11-10T00:14:57;7.80;;;4.43;;
3225;SDS011;1625;49.884;8.666;2022-11-10T00:17:42;5.60;;;3.73;;
3225;SDS011;1625;49.884;8.666;2022-11-10T00:20:08;7.13;;;3.77;;
3225;SDS011;1625;49.884;8.666;2022-11-10T00:22:34;8.90;;;4.10;;
3225;SDS011;1625;49.884;8.666;2022-11-10T00:25:01;4.73;;;3.60;;
3225;SDS011;1625;49.884;8.666;2022-11-10T00:27:27;6.47;;;3.57;;
3225;SDS011;1625;49.884;8.666;2022-11-10T00:29:52;4.80;;;3.80;;
3225;SDS011;1625;49.884;8.666;2022-11-10T00:32:18;3.87;;;3.50;;
3225;SDS011;1625;49.884;8.666;2022-11-10T00:34:44;5.43;;;3.37;;
3225;SDS011;1625;49.884;8.666;2022-11-10T00:37:09;7.10;;;3.63;;
3225;SDS011;1625;49.884;8.666;2022-11-10T00:39:35;5.90;;;3.90;;
3225;SDS011;1625;49.884;8.666;2022-11-10T00:42:00;5.10;;;3.73;;
3225;SDS011;1625;49.884;8.666;2022-11-10T00:44:26;6.20;;;3.83;;
3225;SDS011;1625;49.884;8.666;2022-11-10T00:46:52;4.53;;;4.13;;
3225;SDS011;1625;49.884;8.666;2022-11-10T00:49:17;6.30;;;3.93;;
3225;SDS011;1625;49.884;8.666;2022-11-10T00:51:42;7.20;;;4.30;;
3225;SDS011;1625;49.884;8.666;2022-11-10T00:54:08;7.53;;;4.10;;
3225;SDS011;1625;49.884;8.666;2022-11-10T00:56:34;6.97;;;4.77;;
3225;SDS011;1625;49.884;8.666;2022-11-10T00:58:59;6.73;;;4.40;;
3225;SDS011;1625;49.884;8.666;2022-11-10T01:01:25;6.13;;;4.03;;
3225;SDS011;1625;49.884;8.666;2022-11-10T01:03:51;7.33;;;4.10;;
3225;SDS011;1625;49.884;8.666;2022-11-10T01:06:17;5.50;;;3.80;;
3225;SDS011;1625;49.884;8.666;2022-11-10T01:08:44;5.37;;;4.00;;
3225;SDS011;1625;49.884;8.666;2022-11-10T01:11:20;5.27;;;4.13;;
3225;SDS011;1625;49.884;8.666;2022-11-10T01:13:51;4.57;;;3.83;;
3225;SDS011;1625;49.884;8.666;2022-11-10T01:16:19;7.80;;;3.60;;
3225;SDS011;1625;49.884;8.666;2022-11-10T01:18:50;5.60;;;4.23;;
3225;SDS011;1625;49.884;8.666;2022-11-10T01:21:21;5.30;;;4.00;;
3225;SDS011;1625;49.884;8.666;2022-11-10T01:23:48;6.13;;;3.47;;
3225;SDS011;1625;49.884;8.666;2022-11-10T01:26:14;4.83;;;3.50;;
3225;SDS011;1625;49.884;8.666;2022-11-10T01:28:40;6.23;;;4.30;;
3225;SDS011;1625;49.884;8.666;2022-11-10T01:31:06;4.67;;;3.93;;
3225;SDS011;1625;49.884;8.666;2022-11-10T01:33:37;7.70;;;4.40;;
3225;SDS011;1625;49.884;8.666;2022-11-10T01:36:03;4.73;;;3.90;;
3225;SDS011;1625;49.884;8.666;2022-11-10T01:38:30;7.10;;;3.97;;
3225;SDS011;1625;49.884;8.666;2022-11-10T01:41:03;4.50;;;3.70;;
3225;SDS011;1625;49.884;8.666;2022-11-10T01:43:30;4.53;;;3.70;;
3225;SDS011;1625;49.884;8.666;2022-11-10T01:48:27;7.43;;;4.40;;
3225;SDS011;1625;49.884;8.666;2022-11-10T01:51:05;8.23;;;4.60;;
3225;SDS011;1625;49.884;8.666;2022-11-10T01:53:43;8.50;;;3.80;;
3225;SDS011;1625;49.884;8.666;2022-11-10T01:56:12;5.43;;;4.03;;
3225;SDS011;1625;49.884;8.666;2022-11-10T01:58:41;10.10;;;4.50;;
3225;SDS011;1625;49.884;8.666;2022-11-10T02:01:11;4.23;;;3.83;;
3225;SDS011;1625;49.884;8.666;2022-11-10T02:06:06;7.37;;;4.07;;
3225;SDS011;1625;49.884;8.666;2022-11-10T02:08:31;7.50;;;4.03;;
3225;SDS011;1625;49.884;8.666;2022-11-10T02:10:58;4.97;;;4.43;;
3225;SDS011;1625;49.884;8.666;2022-11-10T02:13:23;5.90;;;5.30;;
3225;SDS011;1625;49.884;8.666;2022-11-10T02:15:51;6.97;;;4.40;;
3225;SDS011;1625;49.884;8.666;2022-11-10T02:18:17;5.97;;;4.27;;
3225;SDS011;1625;49.884;8.666;2022-11-10T02:20:43;6.77;;;3.70;;
3225;SDS011;1625;49.884;8.666;2022-11-10T02:23:55;5.37;;;4.13;;
3225;SDS011;1625;49.884;8.666;2022-11-10T02:25:56;7.43;;;3.93;;
3225;SDS011;1625;49.884;8.666;2022-11-10T02:28:22;6.17;;;4.03;;
3225;SDS011;1625;49.884;8.666;2022-11-10T02:30:49;6.73;;;3.70;;
3225;SDS011;1625;49.884;8.666;2022-11-10T02:33:15;6.37;;;3.93;;
3225;SDS011;1625;49.884;8.666;2022-11-10T02:35:46;5.60;;;3.73;;
3225;SDS011;1625;49.884;8.666;2022-11-10T02:38:12;8.40;;;3.90;;
3225;SDS011;1625;49.884;8.666;2022-11-10T02:40:38;5.73;;;4.40;;
3225;SDS011;1625;49.884;8.666;2022-11-10T02:43:04;4.73;;;4.20;;
3225;SDS011;1625;49.884;8.666;2022-11-10T02:45:31;5.87;;;4.40;;
3225;SDS011;1625;49.884;8.666;2022-11-10T02:47:57;5.43;;;4.50;;
3225;SDS011;1625;49.884;8.666;2022-11-10T02:50:23;8.57;;;4.43;;
3225;SDS011;1625;49.884;8.666;2022-11-10T02:52:59;5.63;;;4.30;;
3225;SDS011;1625;49.884;8.666;2022-11-10T02:55:25;10.07;;;4.20;;
3225;SDS011;1625;49.884;8.666;2022-11-10T02:57:51;4.43;;;3.67;;
3225;SDS011;1625;49.884;8.666;2022-11-10T03:00:17;5.30;;;3.93;;
3225;SDS011;1625;49.884;8.666;2022-11-10T03:02:42;5.53;;;4.97;;
3225;SDS011;1625;49.884;8.666;2022-11-10T03:05:08;5.17;;;4.10;;
3225;SDS011;1625;49.884;8.666;2022-11-10T03:07:34;5.27;;;4.00;;
3225;SDS011;1625;49.884;8.666;2022-11-10T03:09:59;6.13;;;4.50;;
3225;SDS011;1625;49.884;8.666;2022-11-10T03:12:25;7.57;;;5.00;;
3225;SDS011;1625;49.884;8.666;2022-11-10T03:14:50;10.07;;;4.40;;
3225;SDS011;1625;49.884;8.666;2022-11-10T03:17:16;5.17;;;4.67;;
3225;SDS011;1625;49.884;8.666;2022-11-10T03:19:41;8.20;;;4.17;;
3225;SDS011;1625;49.884;8.666;2022-11-10T03:22:07;5.70;;;4.73;;
3225;SDS011;1625;49.884;8.666;2022-11-10T03:24:32;6.90;;;4.67;;
3225;SDS011;1625;49.884;8.666;2022-11-10T03:26:58;5.83;;;4.13;;
3225;SDS011;1625;49.884;8.666;2022-11-10T03:29:23;4.90;;;4.27;;
3225;SDS011;1625;49.884;8.666;2022-11-10T03:31:49;9.27;;;4.40;;
3225;SDS011;1625;49.884;8.666;2022-11-10T03:34:14;5.87;;;4.17;;
3225;SDS011;1625;49.884;8.666;2022-11-10T03:36:40;6.80;;;4.70;;
3225;SDS011;1625;49.884;8.666;2022-11-10T03:39:05;5.83;;;4.50;;
3225;SDS011;1625;49.884;8.666;2022-11-10T03:41:31;4.87;;;4.37;;
3225;SDS011;1625;49.884;8.666;2022-11-10T03:43:56;6.70;;;5.03;;
3225;SDS011;1625;49.884;8.666;2022-11-10T03:46:22;8.20;;;5.20;;
3225;SDS011;1625;49.884;8.666;2022-11-10T03:48:47;5.93;;;4.73;;
3225;SDS011;1625;49.884;8.666;2022-11-10T03:51:13;10.90;;;4.60;;
3225;SDS011;1625;49.884;8.666;2022-11-10T03:53:38;6.97;;;4.90;;
3225;SDS011;1625;49.884;8.666;2022-11-10T03:56:04;6.47;;;4.63;;
3225;SDS011;1625;49.884;8.666;2022-11-10T03:58:30;6.70;;;4.40;;
3225;SDS011;1625;49.884;8.666;2022-11-10T04:00:55;10.10;;;4.60;;
3225;SDS011;1625;49.884;8.666;2022-11-10T04:03:21;7.17;;;4.83;;
3225;SDS011;1625;49.884;8.666;2022-11-10T04:05:48;11.00;;;4.67;;
3225;SDS011;1625;49.884;8.666;2022-11-10T04:08:32;7.20;;;4.90;;
3225;SDS011;1625;49.884;8.666;2022-11-10T04:11:16;8.10;;;4.60;;
3225;SDS011;1625;49.884;8.666;2022-11-10T04:14:01;7.47;;;5.30;;
3225;SDS011;1625;49.884;8.666;2022-11-10T04:16:46;9.40;;;4.50;;
3225;SDS011;1625;49.884;8.666;2022-11-10T04:19:12;9.87;;;5.20;;
3225;SDS011;1625;49.884;8.666;2022-11-10T04:21:37;7.87;;;4.77;;
3225;SDS011;1625;49.884;8.666;2022-11-10T04:24:03;5.93;;;5.03;;
3225;SDS011;1625;49.884;8.666;2022-11-10T04:26:28;4.53;;;3.97;;
3225;SDS011;1625;49.884;8.666;2022-11-10T04:28:58;6.17;;;4.87;;
3225;SDS011;1625;49.884;8.666;2022-11-10T04:31:26;8.27;;;5.27;;
3225;SDS011;1625;49.884;8.666;2022-11-10T04:33:53;6.67;;;4.70;;
3225;SDS011;1625;49.884;8.666;2022-11-10T04:36:20;9.70;;;4.90;;
3225;SDS011;1625;49.884;8.666;2022-11-10T04:38:48;4.90;;;4.37;;
3225;SDS011;1625;49.884;8.666;2022-11-10T04:41:14;8.20;;;4.90;;
3225;SDS011;1625;49.884;8.666;2022-11-10T04:43:40;5.73;;;4.80;;
3225;SDS011;1625;49.884;8.666;2022-11-10T04:46:06;7.90;;;5.07;;
3225;SDS011;1625;49.884;8.666;2022-11-10T04:48:38;8.37;;;5.50;;
3225;SDS011;1625;49.884;8.666;2022-11-10T04:51:04;5.93;;;5.00;;
3225;SDS011;1625;49.884;8.666;2022-11-10T04:53:30;7.23;;;5.30;;
3225;SDS011;1625;49.884;8.666;2022-11-10T04:55:56;11.50;;;5.27;;
3225;SDS011;1625;49.884;8.666;2022-11-10T04:58:22;6.57;;;4.97;;
3225;SDS011;1625;49.884;8.666;2022-11-10T05:00:47;10.47;;;6.07;;
3225;SDS011;1625;49.884;8.666;2022-11-10T05:03:13;6.30;;;4.63;;
3225;SDS011;1625;49.884;8.666;2022-11-10T05:05:39;7.53;;;5.10;;
3225;SDS011;1625;49.884;8.666;2022-11-10T05:08:05;5.77;;;4.83;;
3225;SDS011;1625;49.884;8.666;2022-11-10T05:10:32;4.73;;;4.23;;
3225;SDS011;1625;49.884;8.666;2022-11-10T05:12:58;7.43;;;5.30;;
3225;SDS011;1625;49.884;8.666;2022-11-10T05:15:24;5.63;;;4.77;;
3225;SDS011;1625;49.884;8.666;2022-11-10T05:17:56;6.20;;;5.50;;
3225;SDS011;1625;49.884;8.666;2022-11-10T05:20:22;15.23;;;6.80;;
3225;SDS011;1625;49.884;8.666;2022-11-10T05:22:49;8.53;;;5.47;;
3225;SDS011;1625;49.884;8.666;2022-11-10T05:25:47;7.97;;;5.40;;
3225;SDS011;1625;49.884;8.666;2022-11-10T05:28:12;6.63;;;5.50;;
3225;SDS011;1625;49.884;8.666;2022-11-10T05:30:40;7.20;;;5.40;;
3225;SDS011;1625;49.884;8.666;2022-11-10T05:33:06;7.53;;;4.83;;
3225;SDS011;1625;49.884;8.666;2022-11-10T05:35:32;9.37;;;6.23;;
3225;SDS011;1625;49.884;8.666;2022-11-10T05:37:58;7.67;;;6.07;;
3225;SDS011;1625;49.884;8.666;2022-11-10T05:40:24;7.47;;;5.37;;
3225;SDS011;1625;49.884;8.666;2022-11-10T05:42:50;8.97;;;6.30;;
3225;SDS011;1625;49.884;8.666;2022-11-10T05:45:19;7.67;;;5.77;;
3225;SDS011;1625;49.884;8.666;2022-11-10T05:47:46;6.60;;;4.90;;
3225;SDS011;1625;49.884;8.666;2022-11-10T05:50:12;6.73;;;5.10;;
3225;SDS011;1625;49.884;8.666;2022-11-10T05:52:39;8.53;;;5.90;;
3225;SDS011;1625;49.884;8.666;2022-11-10T05:55:10;6.63;;;5.50;;
3225;SDS011;1625;49.884;8.666;2022-11-10T05:57:37;9.30;;;6.53;;
3225;SDS011;1625;49.884;8.666;2022-11-10T06:00:06;7.37;;;5.43;;
3225;SDS011;1625;49.884;8.666;2022-11-10T06:02:32;10.10;;;5.67;;
3225;SDS011;1625;49.884;8.666;2022-11-10T06:04:57;8.00;;;5.97;;
3225;SDS011;1625;49.884;8.666;2022-11-10T06:07:23;9.80;;;6.33;;
3225;SDS011;1625;49.884;8.666;2022-11-10T06:09:48;8.57;;;5.97;;
3225;SDS011;1625;49.884;8.666;2022-11-10T06:12:14;10.40;;;5.97;;
3225;SDS011;1625;49.884;8.666;2022-11-10T06:14:40;12.80;;;6.90;;
3225;SDS011;1625;49.884;8.666;2022-11-10T06:17:05;10.70;;;6.70;;
3225;SDS011;1625;49.884;8.666;2022-11-10T06:19:31;7.30;;;5.20;;
3225;SDS011;1625;49.884;8.666;2022-11-10T06:21:56;7.97;;;5.77;;
3225;SDS011;1625;49.884;8.666;2022-11-10T06:24:22;7.37;;;5.73;;
3225;SDS011;1625;49.884;8.666;2022-11-10T06:26:47;10.47;;;5.80;;
3225;SDS011;1625;49.884;8.666;2022-11-10T06:29:13;7.33;;;6.47;;
3225;SDS011;1625;49.884;8.666;2022-11-10T06:31:38;8.63;;;6.67;;
3225;SDS011;1625;49.884;8.666;2022-11-10T06:34:04;9.73;;;6.73;;
3225;SDS011;1625;49.884;8.666;2022-11-10T06:36:29;11.03;;;6.70;;
3225;SDS011;1625;49.884;8.666;2022-11-10T06:38:55;9.50;;;7.10;;
3225;SDS011;1625;49.884;8.666;2022-11-10T06:41:20;8.37;;;6.83;;
3225;SDS011;1625;49.884;8.666;2022-11-10T06:43:46;10.03;;;6.40;;
3225;SDS011;1625;49.884;8.666;2022-11-10T06:46:11;15.27;;;7.20;;
3225;SDS011;1625;49.884;8.666;2022-11-10T06:48:37;8.90;;;5.50;;
3225;SDS011;1625;49.884;8.666;2022-11-10T06:51:03;10.50;;;6.53;;
3225;SDS011;1625;49.884;8.666;2022-11-10T06:53:29;10.17;;;7.47;;
3225;SDS011;1625;49.884;8.666;2022-11-10T06:55:54;10.33;;;6.23;;
3225;SDS011;1625;49.884;8.666;2022-11-10T06:58:20;11.70;;;6.43;;
3225;SDS011;1625;49.884;8.666;2022-11-10T07:00:45;10.50;;;6.33;;
3225;SDS011;1625;49.884;8.666;2022-11-10T07:03:12;8.97;;;6.70;;
3225;SDS011;1625;49.884;8.666;2022-11-10T07:05:38;10.17;;;7.07;;
3225;SDS011;1625;49.884;8.666;2022-11-10T07:08:08;10.20;;;6.47;;
3225;SDS011;1625;49.884;8.666;2022-11-10T07:10:39;9.23;;;6.23;;
3225;SDS011;1625;49.884;8.666;2022-11-10T07:13:16;10.00;;;6.67;;
3225;SDS011;1625;49.884;8.666;2022-11-10T07:15:42;8.50;;;6.20;;
3225;SDS011;1625;49.884;8.666;2022-11-10T07:18:08;11.00;;;7.13;;
3225;SDS011;1625;49.884;8.666;2022-11-10T07:20:33;9.37;;;7.40;;
3225;SDS011;1625;49.884;8.666;2022-11-10T07:23:00;9.67;;;6.20;;
3225;SDS011;1625;49.884;8.666;2022-11-10T07:25:27;7.13;;;6.43;;
3225;SDS011;1625;49.884;8.666;2022-11-10T07:27:55;6.87;;;6.00;;
3225;SDS011;1625;49.884;8.666;2022-11-10T07:30:22;9.90;;;7.13;;
3225;SDS011;1625;49.884;8.666;2022-11-10T07:33:04;8.50;;;5.93;;
3225;SDS011;1625;49.884;8.666;2022-11-10T07:35:35;8.50;;;6.00;;
3225;SDS011;1625;49.884;8.666;2022-11-10T07:38:02;9.70;;;6.30;;
3225;SDS011;1625;49.884;8.666;2022-11-10T07:40:32;8.37;;;6.83;;
3225;SDS011;1625;49.884;8.666;2022-11-10T07:42:58;7.93;;;6.13;;
3225;SDS011;1625;49.884;8.666;2022-11-10T07:45:24;7.50;;;6.80;;
3225;SDS011;1625;49.884;8.666;2022-11-10T07:47:50;10.07;;;6.90;;
3225;SDS011;1625;49.884;8.666;2022-11-10T07:50:16;10.70;;;6.60;;
3225;SDS011;1625;49.884;8.666;2022-11-10T07:52:42;10.67;;;6.50;;
3225;SDS011;1625;49.884;8.666;2022-11-10T07:55:08;8.53;;;6.67;;
3225;SDS011;1625;49.884;8.666;2022-11-10T07:57:34;7.50;;;6.40;;
3225;SDS011;1625;49.884;8.666;2022-11-10T07:59:59;11.20;;;7.07;;
3225;SDS011;1625;49.884;8.666;2022-11-10T08:02:25;8.93;;;6.97;;
3225;SDS011;1625;49.884;8.666;2022-11-10T08:04:51;13.13;;;7.37;;
3225;SDS011;1625;49.884;8.666;2022-11-10T08:07:16;10.33;;;7.30;;
3225;SDS011;1625;49.884;8.666;2022-11-10T08:09:42;9.33;;;6.80;;
3225;SDS011;1625;49.884;8.666;2022-11-10T08:12:08;8.53;;;6.60;;
3225;SDS011;1625;49.884;8.666;2022-11-10T08:14:34;8.57;;;6.47;;
3225;SDS011;1625;49.884;8.666;2022-11-10T08:16:59;8.27;;;6.20;;
3225;SDS011;1625;49.884;8.666;2022-11-10T08:19:25;10.00;;;6.17;;
3225;SDS011;1625;49.884;8.666;2022-11-10T08:21:51;11.87;;;7.73;;
3225;SDS011;1625;49.884;8.666;2022-11-10T08:24:16;16.20;;;7.90;;
3225;SDS011;1625;49.884;8.666;2022-11-10T08:26:42;12.90;;;8.27;;
3225;SDS011;1625;49.884;8.666;2022-11-10T08:29:07;12.13;;;6.50;;
3225;SDS011;1625;49.884;8.666;2022-11-10T08:31:33;12.30;;;8.20;;
3225;SDS011;1625;49.884;8.666;2022-11-10T08:33:58;13.60;;;8.07;;
3225;SDS011;1625;49.884;8.666;2022-11-10T08:36:24;17.60;;;12.27;;
3225;SDS011;1625;49.884;8.666;2022-11-10T08:38:49;16.80;;;8.90;;
3225;SDS011;1625;49.884;8.666;2022-11-10T08:41:15;15.57;;;8.93;;
3225;SDS011;1625;49.884;8.666;2022-11-10T08:43:41;9.40;;;7.57;;
3225;SDS011;1625;49.884;8.666;2022-11-10T08:46:06;8.70;;;7.13;;
3225;SDS011;1625;49.884;8.666;2022-11-10T08:48:32;10.57;;;8.00;;
3225;SDS011;1625;49.884;8.666;2022-11-10T08:50:58;10.60;;;8.23;;
3225;SDS011;1625;49.884;8.666;2022-11-10T08:53:24;15.10;;;9.03;;
3225;SDS011;1625;49.884;8.666;2022-11-10T08:55:50;17.10;;;8.50;;
3225;SDS011;1625;49.884;8.666;2022-11-10T08:58:18;11.20;;;8.30;;
3225;SDS011;1625;49.884;8.666;2022-11-10T09:00:45;9.80;;;7.30;;
3225;SDS011;1625;49.884;8.666;2022-11-10T09:03:15;9.07;;;6.50;;
3225;SDS011;1625;49.884;8.666;2022-11-10T09:05:44;15.60;;;10.17;;
3225;SDS011;1625;49.884;8.666;2022-11-10T09:08:10;11.57;;;7.57;;
3225;SDS011;1625;49.884;8.666;2022-11-10T09:10:38;10.87;;;6.27;;
3225;SDS011;1625;49.884;8.666;2022-11-10T09:13:09;10.07;;;5.53;;
3225;SDS011;1625;49.884;8.666;2022-11-10T09:15:36;9.90;;;7.27;;
3225;SDS011;1625;49.884;8.666;2022-11-10T09:18:03;12.70;;;7.33;;
3225;SDS011;1625;49.884;8.666;2022-11-10T09:20:31;10.70;;;6.90;;
3225;SDS011;1625;49.884;8.666;2022-11-10T09:23:08;9.07;;;5.93;;
3225;SDS011;1625;49.884;8.666;2022-11-10T09:25:38;10.03;;;6.80;;
3225;SDS011;1625;49.884;8.666;2022-11-10T09:28:04;9.40;;;6.23;;
3225;SDS011;1625;49.884;8.666;2022-11-10T09:30:30;6.77;;;6.07;;
3225;SDS011;1625;49.884;8.666;2022-11-10T09:32:56;11.47;;;7.70;;
3225;SDS011;1625;49.884;8.666;2022-11-10T09:35:24;9.87;;;7.20;;
3225;SDS011;1625;49.884;8.666;2022-11-10T09:37:50;9.93;;;6.53;;
3225;SDS011;1625;49.884;8.666;2022-11-10T09:40:17;6.47;;;5.63;;
3225;SDS011;1625;49.884;8.666;2022-11-10T09:42:46;9.57;;;6.30;;
3225;SDS011;1625;49.884;8.666;2022-11-10T09:45:28;7.60;;;5.53;;
3225;SDS011;1625;49.884;8.666;2022-11-10T09:50:48;7.73;;;4.93;;
3225;SDS011;1625;49.884;8.666;2022-11-10T09:56:42;6.20;;;5.10;;
3225;SDS011;1625;49.884;8.666;2022-11-10T09:59:12;6.83;;;5.30;;
3225;SDS011;1625;49.884;8.666;2022-11-10T10:01:51;5.87;;;5.37;;
3225;SDS011;1625;49.884;8.666;2022-11-10T10:07:11;5.97;;;4.60;;
3225;SDS011;1625;49.884;8.666;2022-11-10T10:09:56;7.03;;;4.17;;
3225;SDS011;1625;49.884;8.666;2022-11-10T10:21:26;9.10;;;5.30;;
3225;SDS011;1625;49.884;8.666;2022-11-10T10:24:02;9.90;;;5.23;;
3225;SDS011;1625;49.884;8.666;2022-11-10T10:26:30;7.40;;;5.70;;
3225;SDS011;1625;49.884;8.666;2022-11-10T10:29:04;6.50;;;5.43;;
3225;SDS011;1625;49.884;8.666;2022-11-10T10:31:35;8.37;;;4.73;;
3225;SDS011;1625;49.884;8.666;2022-11-10T10:34:10;12.23;;;5.40;;
3225;SDS011;1625;49.884;8.666;2022-11-10T10:36:38;6.20;;;5.30;;
3225;SDS011;1625;49.884;8.666;2022-11-10T10:39:05;11.80;;;5.60;;
3225;SDS011;1625;49.884;8.666;2022-11-10T10:41:36;13.57;;;8.40;;
3225;SDS011;1625;49.884;8.666;2022-11-10T10:44:11;9.10;;;5.27;;
3225;SDS011;1625;49.884;8.666;2022-11-10T10:49:22;11.90;;;6.53;;
3225;SDS011;1625;49.884;8.666;2022-11-10T10:51:49;9.97;;;6.33;;
3225;SDS011;1625;49.884;8.666;2022-11-10T10:54:29;5.90;;;5.10;;
3225;SDS011;1625;49.884;8.666;2022-11-10T10:59:41;8.90;;;5.00;;
3225;SDS011;1625;49.884;8.666;2022-11-10T11:04:47;8.17;;;5.00;;
3225;SDS011;1625;49.884;8.666;2022-11-10T11:07:32;10.60;;;5.13;;
3225;SDS011;1625;49.884;8.666;2022-11-10T11:09:57;7.13;;;5.23;;
3225;SDS011;1625;49.884;8.666;2022-11-10T11:12:26;8.77;;;4.03;;
3225;SDS011;1625;49.884;8.666;2022-11-10T11:15:09;11.87;;;4.60;;
3225;SDS011;1625;49.884;8.666;2022-11-10T11:17:37;5.80;;;4.50;;
3225;SDS011;1625;49.884;8.666;2022-11-10T11:20:05;7.40;;;4.77;;
3225;SDS011;1625;49.884;8.666;2022-11-10T11:22:41;7.27;;;4.27;;
3225;SDS011;1625;49.884;8.666;2022-11-10T11:25:28;7.87;;;5.10;;
3225;SDS011;1625;49.884;8.666;2022-11-10T11:38:51;8.03;;;5.43;;
3225;SDS011;1625;49.884;8.666;2022-11-10T11:41:38;7.47;;;3.80;;
3225;SDS011;1625;49.884;8.666;2022-11-10T11:50:49;5.50;;;4.40;;
3225;SDS011;1625;49.884;8.666;2022-11-10T11:53:10;7.47;;;4.20;;
3225;SDS011;1625;49.884;8.666;2022-11-10T11:55:57;5.30;;;3.70;;
3225;SDS011;1625;49.884;8.666;2022-11-10T11:58:44;7.07;;;5.07;;
3225;SDS011;1625;49.884;8.666;2022-11-10T12:06:49;4.20;;;3.77;;
3225;SDS011;1625;49.884;8.666;2022-11-10T12:09:29;11.50;;;4.27;;
3225;SDS011;1625;49.884;8.666;2022-11-10T12:12:09;8.37;;;4.27;;
3225;SDS011;1625;49.884;8.666;2022-11-10T12:14:59;6.30;;;4.17;;
3225;SDS011;1625;49.884;8.666;2022-11-10T12:17:57;7.37;;;3.60;;
3225;SDS011;1625;49.884;8.666;2022-11-10T12:29:25;6.30;;;3.97;;
3225;SDS011;1625;49.884;8.666;2022-11-10T12:32:09;6.17;;;3.60;;
3225;SDS011;1625;49.884;8.666;2022-11-10T12:34:49;5.47;;;3.40;;
3225;SDS011;1625;49.884;8.666;2022-11-10T12:37:39;7.77;;;3.90;;
3225;SDS011;1625;49.884;8.666;2022-11-10T12:43:04;7.00;;;3.30;;
3225;SDS011;1625;49.884;8.666;2022-11-10T12:45:38;5.37;;;3.40;;
3225;SDS011;1625;49.884;8.666;2022-11-10T12:48:08;4.63;;;4.20;;
3225;SDS011;1625;49.884;8.666;2022-11-10T12:53:30;5.83;;;3.60;;
3225;SDS011;1625;49.884;8.666;2022-11-10T12:59:36;6.83;;;3.83;;
3225;SDS011;1625;49.884;8.666;2022-11-10T13:01:45;3.93;;;3.10;;
3225;SDS011;1625;49.884;8.666;2022-11-10T13:04:13;5.70;;;3.23;;
3225;SDS011;1625;49.884;8.666;2022-11-10T13:06:44;6.47;;;3.40;;
3225;SDS011;1625;49.884;8.666;2022-11-10T13:12:05;6.87;;;2.80;;
3225;SDS011;1625;49.884;8.666;2022-11-10T13:14:39;6.47;;;3.40;;
3225;SDS011;1625;49.884;8.666;2022-11-10T13:17:06;12.37;;;3.53;;
3225;SDS011;1625;49.884;8.666;2022-11-10T13:22:04;3.80;;;2.67;;
3225;SDS011;1625;49.884;8.666;2022-11-10T13:24:33;4.80;;;3.47;;
3225;SDS011;1625;49.884;8.666;2022-11-10T13:27:01;7.70;;;3.03;;
3225;SDS011;1625;49.884;8.666;2022-11-10T13:34:42;5.07;;;3.00;;
3225;SDS011;1625;49.884;8.666;2022-11-10T13:39:53;6.20;;;2.93;;
3225;SDS011;1625;49.884;8.666;2022-11-10T13:42:37;4.70;;;2.70;;
3225;SDS011;1625;49.884;8.666;2022-11-10T13:56:06;5.10;;;2.80;;
3225;SDS011;1625;49.884;8.666;2022-11-10T13:58:46;6.80;;;2.63;;
3225;SDS011;1625;49.884;8.666;2022-11-10T14:08:40;3.13;;;2.77;;
3225;SDS011;1625;49.884;8.666;2022-11-10T14:11:14;7.73;;;2.70;;
3225;SDS011;1625;49.884;8.666;2022-11-10T14:13:51;4.37;;;3.17;;
3225;SDS011;1625;49.884;8.666;2022-11-10T14:16:27;5.33;;;2.40;;
3225;SDS011;1625;49.884;8.666;2022-11-10T14:19:03;4.30;;;2.40;;
3225;SDS011;1625;49.884;8.666;2022-11-10T14:21:47;6.00;;;2.80;;
3225;SDS011;1625;49.884;8.666;2022-11-10T14:27:07;3.50;;;2.20;;
3225;SDS011;1625;49.884;8.666;2022-11-10T14:29:38;3.43;;;2.40;;
3225;SDS011;1625;49.884;8.666;2022-11-10T14:32:15;5.57;;;2.90;;
3225;SDS011;1625;49.884;8.666;2022-11-10T14:34:47;5.63;;;2.50;;
3225;SDS011;1625;49.884;8.666;2022-11-10T14:37:16;3.83;;;2.40;;
3225;SDS011;1625;49.884;8.666;2022-11-10T14:39:53;6.13;;;2.87;;
3225;SDS011;1625;49.884;8.666;2022-11-10T14:42:21;5.90;;;4.93;;
3225;SDS011;1625;49.884;8.666;2022-11-10T14:44:49;4.30;;;2.80;;
3225;SDS011;1625;49.884;8.666;2022-11-10T14:47:56;4.57;;;2.70;;
3225;SDS011;1625;49.884;8.666;2022-11-10T14:56:02;4.20;;;2.60;;
3225;SDS011;1625;49.884;8.666;2022-11-10T15:01:32;3.70;;;3.07;;
3225;SDS011;1625;49.884;8.666;2022-11-10T15:04:03;6.17;;;3.17;;
3225;SDS011;1625;49.884;8.666;2022-11-10T15:07:25;4.10;;;2.60;;
3225;SDS011;1625;49.884;8.666;2022-11-10T15:10:09;8.83;;;2.90;;
3225;SDS011;1625;49.884;8.666;2022-11-10T15:29:57;5.30;;;3.90;;
